Time;durP1;ratioP1;P1;durP2;ratioP2;P2;SDS_P1;SDS_P2;PMS_P1;PMS_P2;Temp;Humidity;BMP_temperature;BMP_pressure;BME280_temperature;BME280_humidity;BME280_pressure;Samples;Min_cycle;Max_cycle;Signal;HPM_P1;HPM_P2
2021/06/03 00:00:44;;;;;;;6.25;3.38;;;;;;;;;;5126175;27;20380;-69
2021/06/03 00:03:10;;;;;;;6.63;3.75;;;;;;;;;;5110082;28;20388;-70
2021/06/03 00:10:09;;;;;;;7.45;4.82;;;;;;;;;;5125925;27;20378;-69
2021/06/03 00:12:36;;;;;;;7.53;4.20;;;;;;;;;;5109249;28;20031;-70
2021/06/03 00:15:03;;;;;;;9.43;4.13;;;;;;;;;;5109312;28;20016;-70
2021/06/03 00:17:29;;;;;;;6.90;4.00;;;;;;;;;;5108731;28;20027;-70
2021/06/03 00:19:55;;;;;;;5.72;3.50;;;;;;;;;;5110315;28;20024;-70
2021/06/03 00:22:22;;;;;;;6.80;4.05;;;;;;;;;;5110227;28;20020;-70
2021/06/03 00:25:50;;;;;;;6.78;3.95;;;;;;;;;;5125938;27;20396;-70
2021/06/03 00:28:16;;;;;;;5.40;3.50;;;;;;;;;;5110449;28;20159;-70
2021/06/03 00:30:42;;;;;;;6.85;4.30;;;;;;;;;;5109007;28;20023;-70
2021/06/03 00:33:09;;;;;;;7.35;3.90;;;;;;;;;;5108795;28;20024;-70
2021/06/03 00:35:35;;;;;;;7.97;3.95;;;;;;;;;;5110513;28;20023;-70
2021/06/03 00:38:01;;;;;;;6.25;3.78;;;;;;;;;;5110275;28;20024;-70
2021/06/03 00:40:27;;;;;;;6.97;3.65;;;;;;;;;;5108553;28;20396;-70
2021/06/03 00:43:16;;;;;;;6.32;3.72;;;;;;;;;;5126321;27;20139;-70
2021/06/03 00:45:42;;;;;;;5.65;3.35;;;;;;;;;;5110038;28;20028;-70
2021/06/03 00:50:24;;;;;;;6.20;3.42;;;;;;;;;;5126307;27;20412;-70
2021/06/03 00:53:56;;;;;;;5.78;3.83;;;;;;;;;;5126239;27;20373;-70
2021/06/03 00:56:37;;;;;;;8.75;4.00;;;;;;;;;;5126433;27;20384;-70
2021/06/03 00:59:04;;;;;;;5.75;3.70;;;;;;;;;;5110410;28;20028;-69
2021/06/03 01:03:05;;;;;;;5.38;3.33;;;;;;;;;;5126388;27;20523;-69
2021/06/03 01:05:40;;;;;;;5.82;3.28;;;;;;;;;;5110485;28;20031;-70
2021/06/03 01:11:16;;;;;;;7.22;3.97;;;;;;;;;;5126332;27;20385;-69
2021/06/03 01:13:45;;;;;;;8.20;3.97;;;;;;;;;;5110209;28;20515;-70
2021/06/03 01:16:12;;;;;;;6.95;4.15;;;;;;;;;;5109322;28;20022;-69
2021/06/03 01:18:39;;;;;;;5.28;3.60;;;;;;;;;;5109048;28;20091;-69
2021/06/03 01:21:12;;;;;;;10.82;3.72;;;;;;;;;;5109916;28;20028;-69
2021/06/03 01:25:16;;;;;;;6.28;3.92;;;;;;;;;;5150441;27;20117;-69
2021/06/03 01:27:42;;;;;;;5.57;3.67;;;;;;;;;;5129195;28;20499;-70
2021/06/03 01:30:30;;;;;;;4.97;3.35;;;;;;;;;;5126446;27;20380;-70
2021/06/03 01:33:01;;;;;;;6.13;3.47;;;;;;;;;;5109265;28;20123;-70
2021/06/03 01:35:29;;;;;;;7.07;3.67;;;;;;;;;;5110100;28;20027;-70
2021/06/03 01:39:11;;;;;;;8.82;3.35;;;;;;;;;;5133295;27;20113;-70
2021/06/03 01:41:37;;;;;;;10.32;3.78;;;;;;;;;;5130642;28;20032;-70
2021/06/03 01:44:04;;;;;;;6.32;3.30;;;;;;;;;;5130810;28;20041;-69
2021/06/03 01:46:31;;;;;;;5.93;3.25;;;;;;;;;;5130911;28;20771;-70
2021/06/03 01:50:42;;;;;;;6.38;3.67;;;;;;;;;;5125861;27;20384;-70
2021/06/03 01:54:29;;;;;;;7.40;3.65;;;;;;;;;;5126442;27;20472;-70
2021/06/03 01:57:13;;;;;;;9.65;3.80;;;;;;;;;;5126189;27;20738;-69
2021/06/03 01:59:39;;;;;;;6.95;3.35;;;;;;;;;;5110392;28;20024;-70
2021/06/03 02:02:05;;;;;;;5.47;3.38;;;;;;;;;;5110332;28;20020;-70
2021/06/03 02:05:55;;;;;;;6.40;2.97;;;;;;;;;;5126207;27;20416;-69
2021/06/03 02:08:21;;;;;;;6.07;3.35;;;;;;;;;;5110487;28;20035;-70
2021/06/03 02:10:48;;;;;;;6.68;3.53;;;;;;;;;;5110017;28;20024;-69
2021/06/03 02:13:20;;;;;;;6.80;3.40;;;;;;;;;;5110320;28;20024;-69
2021/06/03 02:16:05;;;;;;;5.10;2.97;;;;;;;;;;5110486;28;20032;-69
2021/06/03 02:18:44;;;;;;;6.47;3.67;;;;;;;;;;5109981;28;20027;-69
2021/06/03 02:24:06;;;;;;;7.63;3.40;;;;;;;;;;5126039;27;20373;-69
2021/06/03 02:26:36;;;;;;;6.38;3.65;;;;;;;;;;5110494;28;20111;-71
2021/06/03 02:29:03;;;;;;;6.60;4.15;;;;;;;;;;5110370;28;20073;-69
2021/06/03 02:31:31;;;;;;;6.60;3.72;;;;;;;;;;5109991;28;20022;-70
2021/06/03 02:34:24;;;;;;;5.72;3.60;;;;;;;;;;5126547;27;20884;-69
2021/06/03 02:36:50;;;;;;;6.45;3.97;;;;;;;;;;5110473;28;20047;-70
2021/06/03 02:40:28;;;;;;;6.90;4.22;;;;;;;;;;5126572;27;20450;-69
2021/06/03 02:42:55;;;;;;;9.05;4.20;;;;;;;;;;5109176;28;20032;-69
2021/06/03 02:46:37;;;;;;;5.78;3.53;;;;;;;;;;5125848;27;20144;-69
2021/06/03 02:50:26;;;;;;;7.28;3.60;;;;;;;;;;5126313;27;20373;-70
2021/06/03 02:52:53;;;;;;;7.97;4.35;;;;;;;;;;5110249;28;20032;-70
2021/06/03 02:55:20;;;;;;;7.80;3.60;;;;;;;;;;5110506;28;20035;-70
2021/06/03 02:57:47;;;;;;;6.63;4.00;;;;;;;;;;5109104;28;20032;-70
2021/06/03 03:00:16;;;;;;;8.75;4.47;;;;;;;;;;5109846;28;20030;-70
2021/06/03 03:03:08;;;;;;;8.90;4.45;;;;;;;;;;5126302;27;20373;-70
2021/06/03 03:05:35;;;;;;;6.63;4.07;;;;;;;;;;5109063;28;20032;-70
2021/06/03 03:10:07;;;;;;;7.57;4.88;;;;;;;;;;5126452;27;20385;-70
2021/06/03 03:12:46;;;;;;;6.85;4.20;;;;;;;;;;5126452;27;20377;-69
2021/06/03 03:15:14;;;;;;;6.95;4.15;;;;;;;;;;5108956;28;20047;-69
2021/06/03 03:17:40;;;;;;;6.60;4.45;;;;;;;;;;5108964;28;20361;-70
2021/06/03 03:20:48;;;;;;;7.80;4.53;;;;;;;;;;5126078;27;20683;-69
2021/06/03 03:23:14;;;;;;;6.47;4.20;;;;;;;;;;5109121;28;20027;-70
2021/06/03 03:25:40;;;;;;;11.40;5.28;;;;;;;;;;5110440;28;20069;-70
2021/06/03 03:28:07;;;;;;;9.30;5.60;;;;;;;;;;5110001;28;20027;-70
2021/06/03 03:31:07;;;;;;;9.45;6.03;;;;;;;;;;5126130;27;20381;-70
2021/06/03 03:33:33;;;;;;;7.88;4.40;;;;;;;;;;5110687;28;20115;-70
2021/06/03 03:36:00;;;;;;;9.55;5.25;;;;;;;;;;5108866;28;20027;-70
2021/06/03 03:38:26;;;;;;;9.27;4.80;;;;;;;;;;5110386;28;20095;-70
2021/06/03 03:40:53;;;;;;;8.15;4.20;;;;;;;;;;5110301;28;20030;-69
2021/06/03 03:43:19;;;;;;;8.32;4.65;;;;;;;;;;5109864;28;20421;-70
2021/06/03 03:45:45;;;;;;;9.38;4.53;;;;;;;;;;5110366;28;20098;-69
2021/06/03 03:48:12;;;;;;;7.75;4.32;;;;;;;;;;5109801;28;20480;-70
2021/06/03 03:50:38;;;;;;;5.60;3.67;;;;;;;;;;5108738;28;20031;-70
2021/06/03 03:53:05;;;;;;;7.55;4.20;;;;;;;;;;5110330;28;20476;-70
2021/06/03 03:55:31;;;;;;;6.03;3.67;;;;;;;;;;5109843;28;20440;-70
2021/06/03 03:57:58;;;;;;;7.10;4.32;;;;;;;;;;5110028;28;20523;-70
2021/06/03 04:00:26;;;;;;;6.75;3.72;;;;;;;;;;5109920;28;20028;-70
2021/06/03 04:02:52;;;;;;;6.43;3.72;;;;;;;;;;5109532;28;20484;-70
2021/06/03 04:05:18;;;;;;;8.30;4.40;;;;;;;;;;5109851;28;20028;-70
2021/06/03 04:07:44;;;;;;;7.68;4.03;;;;;;;;;;5109865;28;20040;-70
2021/06/03 04:10:12;;;;;;;6.53;3.85;;;;;;;;;;5109288;28;20032;-70
2021/06/03 04:12:38;;;;;;;6.95;4.18;;;;;;;;;;5109906;28;20024;-71
2021/06/03 04:15:34;;;;;;;7.68;4.38;;;;;;;;;;5126489;27;20846;-71
2021/06/03 04:18:55;;;;;;;7.03;4.50;;;;;;;;;;5126659;27;20384;-69
2021/06/03 04:21:21;;;;;;;7.18;3.58;;;;;;;;;;5110438;28;20035;-69
2021/06/03 04:23:47;;;;;;;7.13;3.58;;;;;;;;;;5110105;28;20020;-69
2021/06/03 04:26:13;;;;;;;5.75;3.60;;;;;;;;;;5109105;28;20034;-70
2021/06/03 04:28:40;;;;;;;5.10;3.47;;;;;;;;;;5110335;28;20020;-69
2021/06/03 04:31:06;;;;;;;5.85;3.17;;;;;;;;;;5110078;28;20023;-70
2021/06/03 04:33:47;;;;;;;5.47;3.60;;;;;;;;;;5126284;27;20376;-70
2021/06/03 04:36:13;;;;;;;7.32;3.83;;;;;;;;;;5110465;28;20032;-70
2021/06/03 04:38:39;;;;;;;6.55;2.95;;;;;;;;;;5108719;28;20388;-70
2021/06/03 04:41:06;;;;;;;7.45;4.32;;;;;;;;;;5110420;28;20038;-70
2021/06/03 04:43:32;;;;;;;11.35;4.22;;;;;;;;;;5110208;28;20024;-69
2021/06/03 04:46:11;;;;;;;6.60;3.92;;;;;;;;;;5126015;27;20860;-69
2021/06/03 04:49:16;;;;;;;5.90;3.33;;;;;;;;;;5126285;27;20155;-69
2021/06/03 04:51:43;;;;;;;8.50;3.53;;;;;;;;;;5110132;28;20362;-70
2021/06/03 04:54:09;;;;;;;5.13;3.38;;;;;;;;;;5110957;28;20349;-70
2021/06/03 04:56:35;;;;;;;8.25;3.20;;;;;;;;;;5110456;28;20067;-70
2021/06/03 04:59:01;;;;;;;6.72;4.00;;;;;;;;;;5110099;28;20020;-70
2021/06/03 05:05:04;;;;;;;10.07;4.90;;;;;;;;;;5124185;27;20388;-69
2021/06/03 05:08:49;;;;;;;5.82;3.58;;;;;;;;;;5126254;27;20372;-69
2021/06/03 05:11:15;;;;;;;6.07;3.83;;;;;;;;;;5110494;28;20105;-67
2021/06/03 05:13:41;;;;;;;4.90;3.30;;;;;;;;;;5110238;28;20020;-68
2021/06/03 05:18:17;;;;;;;7.22;3.75;;;;;;;;;;5126236;27;20377;-68
2021/06/03 05:25:22;;;;;;;4.35;2.50;;;;;;;;;;5125498;27;20384;-67
2021/06/03 05:27:49;;;;;;;6.57;4.00;;;;;;;;;;5108576;28;20031;-67
2021/06/03 05:30:16;;;;;;;5.72;3.63;;;;;;;;;;5108351;28;20530;-68
2021/06/03 05:34:18;;;;;;;9.77;3.80;;;;;;;;;;5125842;27;20388;-68
2021/06/03 05:36:44;;;;;;;6.47;3.40;;;;;;;;;;5110237;28;20032;-69
2021/06/03 05:39:10;;;;;;;4.70;3.17;;;;;;;;;;5107580;28;20018;-67
2021/06/03 05:41:37;;;;;;;7.22;3.58;;;;;;;;;;5105981;28;20103;-68
2021/06/03 05:48:50;;;;;;;5.75;3.38;;;;;;;;;;5125471;27;20380;-68
2021/06/03 05:51:17;;;;;;;8.23;5.15;;;;;;;;;;5109919;28;20032;-68
2021/06/03 05:53:43;;;;;;;9.07;3.70;;;;;;;;;;5110392;28;20077;-68
2021/06/03 05:57:07;;;;;;;7.80;4.40;;;;;;;;;;5124854;27;20381;-69
2021/06/03 06:01:36;;;;;;;6.22;3.97;;;;;;;;;;5124826;27;20381;-68
2021/06/03 06:07:23;;;;;;;6.15;3.38;;;;;;;;;;5125630;27;20384;-68
2021/06/03 06:09:49;;;;;;;5.85;3.20;;;;;;;;;;5109559;28;20064;-68
2021/06/03 06:12:16;;;;;;;5.88;3.28;;;;;;;;;;5110650;28;20026;-72
2021/06/03 06:14:42;;;;;;;5.43;3.00;;;;;;;;;;5109932;28;20452;-73
2021/06/03 06:17:10;;;;;;;7.55;4.68;;;;;;;;;;5109506;28;20103;-73
2021/06/03 06:19:36;;;;;;;6.82;3.58;;;;;;;;;;5110308;28;20016;-72
2021/06/03 06:22:02;;;;;;;4.82;2.55;;;;;;;;;;5108846;28;20080;-72
2021/06/03 06:24:29;;;;;;;5.78;3.05;;;;;;;;;;5109681;28;20028;-73
2021/06/03 06:26:55;;;;;;;3.47;2.67;;;;;;;;;;5109845;28;20034;-71
2021/06/03 06:29:51;;;;;;;7.85;3.22;;;;;;;;;;5088889;27;20378;-71
2021/06/03 06:34:28;;;;;;;4.85;3.00;;;;;;;;;;5125930;27;20377;-72
2021/06/03 06:37:45;;;;;;;5.63;2.95;;;;;;;;;;5125902;27;20140;-68
2021/06/03 06:41:06;;;;;;;4.45;2.65;;;;;;;;;;5150394;27;20845;-70
2021/06/03 06:45:31;;;;;;;6.35;3.20;;;;;;;;;;5129240;27;20134;-70
2021/06/03 06:47:57;;;;;;;7.78;3.15;;;;;;;;;;5130925;27;20019;-70
2021/06/03 06:50:24;;;;;;;9.10;2.83;;;;;;;;;;5130780;28;20023;-70
2021/06/03 06:54:25;;;;;;;4.88;2.72;;;;;;;;;;5126107;27;20868;-70
2021/06/03 06:58:55;;;;;;;4.93;2.80;;;;;;;;;;5123903;27;20864;-69
2021/06/03 07:01:21;;;;;;;5.03;2.63;;;;;;;;;;5107287;28;20605;-70
2021/06/03 07:03:47;;;;;;;7.82;2.83;;;;;;;;;;5107294;28;20049;-70
2021/06/03 07:06:14;;;;;;;5.47;2.60;;;;;;;;;;5108381;28;20024;-71
2021/06/03 07:08:40;;;;;;;5.38;2.70;;;;;;;;;;5108396;28;20027;-73
2021/06/03 07:12:18;;;;;;;7.68;2.35;;;;;;;;;;5123979;27;20385;-72
2021/06/03 07:14:44;;;;;;;4.82;2.67;;;;;;;;;;5108751;28;20053;-73
2021/06/03 07:17:10;;;;;;;4.55;2.33;;;;;;;;;;5109383;28;20035;-71
2021/06/03 07:19:36;;;;;;;4.82;2.45;;;;;;;;;;5108011;28;20020;-74
2021/06/03 07:22:44;;;;;;;5.68;2.22;;;;;;;;;;5125984;27;20384;-70
2021/06/03 07:25:12;;;;;;;5.63;2.15;;;;;;;;;;5110481;28;20027;-73
2021/06/03 07:29:42;;;;;;;3.95;2.00;;;;;;;;;;5126331;27;20381;-72
2021/06/03 07:32:08;;;;;;;4.70;2.80;;;;;;;;;;5109539;28;20054;-72
2021/06/03 07:34:35;;;;;;;3.80;2.10;;;;;;;;;;5108693;28;20115;-72
2021/06/03 07:37:01;;;;;;;6.55;2.15;;;;;;;;;;5110265;28;20020;-72
2021/06/03 07:39:28;;;;;;;3.90;2.30;;;;;;;;;;5108881;28;20058;-74
2021/06/03 07:41:55;;;;;;;6.32;2.78;;;;;;;;;;5109859;28;20020;-72
2021/06/03 07:44:21;;;;;;;4.70;2.33;;;;;;;;;;5108801;28;20460;-73
2021/06/03 07:50:17;;;;;;;4.07;2.13;;;;;;;;;;5126098;27;20441;-70
2021/06/03 07:52:44;;;;;;;6.63;2.40;;;;;;;;;;5110272;28;20115;-69
2021/06/03 07:55:12;;;;;;;4.50;2.25;;;;;;;;;;5109857;28;20049;-69
2021/06/03 07:57:39;;;;;;;3.78;1.83;;;;;;;;;;5110180;28;20035;-67
2021/06/03 08:00:07;;;;;;;3.85;1.98;;;;;;;;;;5108669;28;20066;-68
2021/06/03 08:03:56;;;;;;;5.32;2.60;;;;;;;;;;5125880;27;20413;-68
2021/06/03 08:06:23;;;;;;;11.70;2.30;;;;;;;;;;5110293;28;20362;-68
2021/06/03 08:08:49;;;;;;;4.43;2.00;;;;;;;;;;5109918;28;20030;-68
2021/06/03 08:11:15;;;;;;;5.90;2.08;;;;;;;;;;5109029;28;20117;-68
2021/06/03 08:13:42;;;;;;;7.13;3.40;;;;;;;;;;5109028;28;20108;-68
2021/06/03 08:16:08;;;;;;;4.88;2.65;;;;;;;;;;5108600;28;20028;-68
2021/06/03 08:18:34;;;;;;;4.03;2.60;;;;;;;;;;5110122;28;20031;-69
2021/06/03 08:21:03;;;;;;;6.22;2.80;;;;;;;;;;5109994;28;20521;-68
2021/06/03 08:23:29;;;;;;;5.80;2.28;;;;;;;;;;5108245;28;20503;-67
2021/06/03 08:27:55;;;;;;;3.58;2.28;;;;;;;;;;5105641;27;20371;-67
2021/06/03 08:30:22;;;;;;;7.28;2.25;;;;;;;;;;5089660;28;20115;-68
2021/06/03 08:32:49;;;;;;;3.53;1.95;;;;;;;;;;5090119;28;20047;-69
2021/06/03 08:35:17;;;;;;;3.80;2.10;;;;;;;;;;5088438;28;20024;-69
2021/06/03 08:37:45;;;;;;;4.28;2.40;;;;;;;;;;5087178;28;20039;-69
2021/06/03 08:40:12;;;;;;;4.97;2.50;;;;;;;;;;5089460;28;20073;-68
2021/06/03 08:42:38;;;;;;;7.78;3.33;;;;;;;;;;5087964;28;20025;-68
2021/06/03 08:46:58;;;;;;;4.20;2.33;;;;;;;;;;5125917;27;20378;-72
2021/06/03 08:49:24;;;;;;;7.75;2.53;;;;;;;;;;5110098;28;20031;-69
2021/06/03 08:51:52;;;;;;;7.05;2.63;;;;;;;;;;5108800;28;20030;-69
2021/06/03 08:54:18;;;;;;;5.68;2.00;;;;;;;;;;5110312;28;20107;-70
2021/06/03 08:58:41;;;;;;;7.97;2.35;;;;;;;;;;5121818;27;20790;-69
2021/06/03 09:01:08;;;;;;;3.05;1.92;;;;;;;;;;5106197;28;20020;-69
2021/06/03 09:03:34;;;;;;;3.97;1.98;;;;;;;;;;5110051;28;20035;-71
2021/06/03 09:06:01;;;;;;;3.47;2.20;;;;;;;;;;5108217;28;20019;-71
2021/06/03 09:08:29;;;;;;;12.82;4.03;;;;;;;;;;5105482;28;20030;-70
2021/06/03 09:10:57;;;;;;;4.88;2.08;;;;;;;;;;5109849;28;20388;-69
2021/06/03 09:13:29;;;;;;;4.20;2.10;;;;;;;;;;5106180;28;20098;-71
2021/06/03 09:18:06;;;;;;;6.20;2.75;;;;;;;;;;5125990;27;20365;-67
2021/06/03 09:20:33;;;;;;;5.50;2.38;;;;;;;;;;5110327;28;20077;-68
2021/06/03 09:22:59;;;;;;;6.57;2.70;;;;;;;;;;5108028;28;20024;-71
2021/06/03 09:25:41;;;;;;;5.90;2.53;;;;;;;;;;5106678;28;20598;-70
2021/06/03 09:28:17;;;;;;;5.07;2.22;;;;;;;;;;5107498;28;20027;-70
2021/06/03 09:31:02;;;;;;;4.13;2.10;;;;;;;;;;5109351;28;20139;-70
2021/06/03 09:35:50;;;;;;;6.68;2.80;;;;;;;;;;5123266;27;20377;-71
2021/06/03 09:38:16;;;;;;;8.98;2.30;;;;;;;;;;5108184;28;20392;-71
2021/06/03 09:43:06;;;;;;;4.55;2.15;;;;;;;;;;5126297;27;20401;-69
2021/06/03 09:45:51;;;;;;;4.47;2.22;;;;;;;;;;5107617;28;20035;-69
2021/06/03 09:48:36;;;;;;;4.93;2.22;;;;;;;;;;5095911;28;20685;-72
2021/06/03 09:52:17;;;;;;;6.82;2.47;;;;;;;;;;5126425;27;20381;-71
2021/06/03 09:55:09;;;;;;;8.02;3.10;;;;;;;;;;5124341;27;20377;-68
2021/06/03 09:58:42;;;;;;;3.17;1.70;;;;;;;;;;5123773;27;20381;-68
2021/06/03 10:01:08;;;;;;;5.35;2.58;;;;;;;;;;5095560;28;20016;-68
2021/06/03 10:03:50;;;;;;;4.45;2.53;;;;;;;;;;5108644;28;20024;-68
2021/06/03 10:06:16;;;;;;;7.03;2.53;;;;;;;;;;5108970;28;20024;-71
2021/06/03 10:08:47;;;;;;;3.10;2.17;;;;;;;;;;5100017;28;20024;-71
2021/06/03 10:11:13;;;;;;;5.50;2.25;;;;;;;;;;5088542;28;20028;-70
2021/06/03 10:13:59;;;;;;;5.05;2.38;;;;;;;;;;5089493;28;20091;-69
2021/06/03 10:16:32;;;;;;;3.58;1.75;;;;;;;;;;5089055;28;20089;-71
2021/06/03 10:19:17;;;;;;;6.15;2.20;;;;;;;;;;5088352;28;20028;-69
2021/06/03 10:21:45;;;;;;;5.55;2.30;;;;;;;;;;5089242;28;20556;-70
2021/06/03 10:24:11;;;;;;;4.63;1.98;;;;;;;;;;5083617;28;20035;-69
2021/06/03 10:26:57;;;;;;;8.30;2.20;;;;;;;;;;5085309;28;20028;-72
2021/06/03 10:29:23;;;;;;;4.78;2.28;;;;;;;;;;5087064;28;20600;-71
2021/06/03 10:31:49;;;;;;;3.60;2.03;;;;;;;;;;5083713;28;20082;-70
2021/06/03 10:34:17;;;;;;;4.03;2.38;;;;;;;;;;5085074;28;20116;-70
2021/06/03 10:36:44;;;;;;;6.85;2.17;;;;;;;;;;5085888;28;20032;-70
2021/06/03 10:39:10;;;;;;;3.83;2.40;;;;;;;;;;5089192;28;20481;-71
2021/06/03 10:41:36;;;;;;;9.80;2.42;;;;;;;;;;5088057;28;20021;-70
2021/06/03 10:44:05;;;;;;;4.90;2.42;;;;;;;;;;5086718;28;20024;-71
2021/06/03 10:46:32;;;;;;;6.43;3.92;;;;;;;;;;5089170;28;20021;-73
2021/06/03 10:48:58;;;;;;;6.63;3.53;;;;;;;;;;5086452;28;20021;-71
2021/06/03 10:51:25;;;;;;;4.18;2.08;;;;;;;;;;5086640;28;20441;-69
2021/06/03 10:56:11;;;;;;;3.50;2.03;;;;;;;;;;5131124;27;20338;-70
2021/06/03 10:58:38;;;;;;;5.35;2.45;;;;;;;;;;5110262;28;20391;-69
2021/06/03 11:01:06;;;;;;;3.20;1.73;;;;;;;;;;5127930;28;20371;-68
2021/06/03 11:03:42;;;;;;;4.95;1.73;;;;;;;;;;5126741;28;20023;-70
2021/06/03 11:06:10;;;;;;;3.08;1.80;;;;;;;;;;5109801;28;20659;-69
2021/06/03 11:08:36;;;;;;;3.72;2.15;;;;;;;;;;5129145;28;20043;-70
2021/06/03 11:11:14;;;;;;;3.13;1.98;;;;;;;;;;5105812;28;20212;-68
2021/06/03 11:13:46;;;;;;;3.90;2.05;;;;;;;;;;5126117;28;20463;-69
2021/06/03 11:16:15;;;;;;;3.38;2.28;;;;;;;;;;5116082;28;20081;-70
2021/06/03 11:18:41;;;;;;;2.72;1.83;;;;;;;;;;5123986;28;20314;-68
2021/06/03 11:21:07;;;;;;;3.75;2.17;;;;;;;;;;5110212;28;20023;-67
2021/06/03 11:23:41;;;;;;;4.15;2.00;;;;;;;;;;5127290;28;20069;-69
2021/06/03 11:26:08;;;;;;;4.00;1.83;;;;;;;;;;5129321;28;20019;-70
2021/06/03 11:28:34;;;;;;;2.78;1.98;;;;;;;;;;5110736;28;20486;-69
2021/06/03 11:31:19;;;;;;;3.33;1.60;;;;;;;;;;5111804;28;20023;-70
2021/06/03 11:34:03;;;;;;;3.42;1.75;;;;;;;;;;5127771;28;20036;-70
2021/06/03 11:36:31;;;;;;;3.13;1.65;;;;;;;;;;5128210;28;20027;-70
2021/06/03 11:38:57;;;;;;;4.70;1.98;;;;;;;;;;5128127;28;20016;-70
2021/06/03 11:41:35;;;;;;;5.40;2.15;;;;;;;;;;5127607;28;20407;-70
2021/06/03 11:44:09;;;;;;;5.38;2.10;;;;;;;;;;5128123;28;20490;-68
2021/06/03 11:47:04;;;;;;;3.00;1.63;;;;;;;;;;5126019;28;20059;-70
2021/06/03 11:49:40;;;;;;;3.80;2.25;;;;;;;;;;5108077;28;20096;-70
2021/06/03 11:52:14;;;;;;;3.65;1.90;;;;;;;;;;5126735;28;20376;-69
2021/06/03 11:54:54;;;;;;;6.55;1.67;;;;;;;;;;5123919;28;20047;-69
2021/06/03 11:57:21;;;;;;;4.13;2.00;;;;;;;;;;5127431;28;20476;-69
2021/06/03 11:59:55;;;;;;;4.15;1.40;;;;;;;;;;5129389;28;20480;-69
2021/06/03 12:02:28;;;;;;;5.78;2.35;;;;;;;;;;5124795;28;20074;-69
2021/06/03 12:05:14;;;;;;;2.22;1.42;;;;;;;;;;5124847;28;20027;-68
2021/06/03 12:07:47;;;;;;;6.57;1.95;;;;;;;;;;5110668;28;20035;-69
2021/06/03 12:10:18;;;;;;;4.72;1.67;;;;;;;;;;5092029;28;20115;-70
2021/06/03 12:12:44;;;;;;;8.70;2.00;;;;;;;;;;5096177;28;20028;-69
2021/06/03 12:15:16;;;;;;;4.90;2.00;;;;;;;;;;5114488;28;20111;-69
2021/06/03 12:17:43;;;;;;;2.13;1.50;;;;;;;;;;5112856;28;20015;-69
2021/06/03 12:20:14;;;;;;;3.20;1.40;;;;;;;;;;5113299;28;20464;-69
2021/06/03 12:22:40;;;;;;;5.43;1.85;;;;;;;;;;5107756;28;20035;-69
2021/06/03 12:25:07;;;;;;;8.05;2.00;;;;;;;;;;5114450;28;20020;-68
2021/06/03 12:27:41;;;;;;;4.88;1.77;;;;;;;;;;5114956;28;20123;-70
2021/06/03 12:30:14;;;;;;;6.80;1.67;;;;;;;;;;5114570;28;20392;-69
2021/06/03 12:32:41;;;;;;;3.88;1.70;;;;;;;;;;5113680;28;20093;-70
2021/06/03 12:35:08;;;;;;;5.45;2.20;;;;;;;;;;5114657;28;20031;-69
2021/06/03 12:37:35;;;;;;;2.88;1.50;;;;;;;;;;5095913;28;20028;-70
2021/06/03 12:40:21;;;;;;;2.25;1.50;;;;;;;;;;5114437;28;20027;-69
2021/06/03 12:42:47;;;;;;;2.15;1.50;;;;;;;;;;5094041;28;20019;-70
2021/06/03 12:45:13;;;;;;;2.15;1.50;;;;;;;;;;5113968;28;20016;-69
2021/06/03 12:47:40;;;;;;;4.30;1.77;;;;;;;;;;5114540;28;20107;-69
2021/06/03 12:50:17;;;;;;;1.30;1.10;;;;;;;;;;5114113;28;20123;-69
2021/06/03 12:52:48;;;;;;;4.35;1.80;;;;;;;;;;5095942;28;20023;-69
2021/06/03 12:55:15;;;;;;;2.47;1.52;;;;;;;;;;5114171;28;20047;-67
2021/06/03 12:57:41;;;;;;;4.07;1.70;;;;;;;;;;5113926;28;20540;-70
2021/06/03 13:00:28;;;;;;;3.00;1.60;;;;;;;;;;5113769;28;20520;-69
2021/06/03 13:02:54;;;;;;;3.58;1.95;;;;;;;;;;5113667;28;20023;-70
2021/06/03 13:05:21;;;;;;;3.55;1.52;;;;;;;;;;5113687;28;20052;-68
2021/06/03 13:07:48;;;;;;;5.03;1.90;;;;;;;;;;5113840;28;20031;-67
2021/06/03 13:10:16;;;;;;;7.05;1.83;;;;;;;;;;5096088;28;20024;-69
2021/06/03 13:12:47;;;;;;;3.17;1.80;;;;;;;;;;5113549;28;20019;-70
2021/06/03 13:15:14;;;;;;;4.78;1.80;;;;;;;;;;5095318;28;20032;-70
2021/06/03 13:17:43;;;;;;;3.70;1.73;;;;;;;;;;5112940;28;20077;-70
2021/06/03 13:20:17;;;;;;;3.90;1.70;;;;;;;;;;5113623;28;20055;-69
2021/06/03 13:22:54;;;;;;;3.63;1.60;;;;;;;;;;5095145;28;20111;-68
2021/06/03 13:25:21;;;;;;;2.95;1.40;;;;;;;;;;5113469;28;20407;-68
2021/06/03 13:27:49;;;;;;;4.47;1.42;;;;;;;;;;5113777;28;20020;-70
2021/06/03 13:30:19;;;;;;;1.80;1.35;;;;;;;;;;5114279;28;20080;-70
2021/06/03 13:32:47;;;;;;;5.50;2.20;;;;;;;;;;5095537;28;20020;-70
2021/06/03 13:35:18;;;;;;;3.42;1.60;;;;;;;;;;5095748;28;20027;-69
2021/06/03 13:37:45;;;;;;;2.10;1.40;;;;;;;;;;5114121;28;20380;-69
2021/06/03 13:40:15;;;;;;;3.40;1.60;;;;;;;;;;5113681;28;20020;-68
2021/06/03 13:42:49;;;;;;;3.10;1.80;;;;;;;;;;5113552;28;20023;-68
2021/06/03 13:45:21;;;;;;;3.25;2.28;;;;;;;;;;5113889;28;20023;-68
2021/06/03 13:47:47;;;;;;;2.90;1.52;;;;;;;;;;5113636;28;20372;-68
2021/06/03 13:50:32;;;;;;;3.85;1.55;;;;;;;;;;5114157;28;20030;-68
2021/06/03 13:53:07;;;;;;;3.88;1.70;;;;;;;;;;5113837;28;20019;-67
2021/06/03 13:55:34;;;;;;;2.78;1.23;;;;;;;;;;5113481;28;20044;-68
2021/06/03 13:58:00;;;;;;;2.78;1.55;;;;;;;;;;5113666;28;20533;-68
2021/06/03 14:00:29;;;;;;;6.18;1.70;;;;;;;;;;5113325;28;20032;-67
2021/06/03 14:02:58;;;;;;;4.10;1.90;;;;;;;;;;5113666;28;20023;-68
2021/06/03 14:05:25;;;;;;;6.28;2.28;;;;;;;;;;5113650;28;20023;-70
2021/06/03 14:08:07;;;;;;;4.28;1.92;;;;;;;;;;5113270;28;20020;-68
2021/06/03 14:10:34;;;;;;;3.22;1.38;;;;;;;;;;5113757;28;20028;-70
2021/06/03 14:13:04;;;;;;;2.25;1.25;;;;;;;;;;5113480;28;20028;-68
2021/06/03 14:15:40;;;;;;;2.90;1.40;;;;;;;;;;5112904;28;20484;-67
2021/06/03 14:18:08;;;;;;;3.17;1.50;;;;;;;;;;5113604;28;20024;-68
2021/06/03 14:20:34;;;;;;;2.70;1.67;;;;;;;;;;5095186;28;20028;-67
2021/06/03 14:23:00;;;;;;;2.75;1.67;;;;;;;;;;5094614;28;20023;-67
2021/06/03 14:25:36;;;;;;;2.03;1.52;;;;;;;;;;5113321;28;20356;-68
2021/06/03 14:28:10;;;;;;;2.92;1.40;;;;;;;;;;5113105;28;20030;-68
2021/06/03 14:30:37;;;;;;;4.00;1.30;;;;;;;;;;5112961;28;20026;-68
2021/06/03 14:33:06;;;;;;;2.15;1.30;;;;;;;;;;5094958;28;20045;-67
2021/06/03 14:35:43;;;;;;;4.38;1.67;;;;;;;;;;5112732;28;20365;-69
2021/06/03 14:38:11;;;;;;;2.33;1.70;;;;;;;;;;5094711;28;20020;-67
2021/06/03 14:40:41;;;;;;;3.05;1.50;;;;;;;;;;5113073;28;20507;-68
2021/06/03 14:43:15;;;;;;;2.17;1.38;;;;;;;;;;5112532;28;20024;-67
2021/06/03 14:45:42;;;;;;;2.17;1.58;;;;;;;;;;5112625;28;20023;-68
2021/06/03 14:48:15;;;;;;;1.58;1.13;;;;;;;;;;5093300;28;20027;-68
2021/06/03 14:50:43;;;;;;;1.88;1.38;;;;;;;;;;5112695;28;20472;-68
2021/06/03 14:53:10;;;;;;;2.40;1.42;;;;;;;;;;5113122;28;20023;-68
2021/06/03 14:55:41;;;;;;;8.60;1.88;;;;;;;;;;5090941;28;20863;-68
2021/06/03 14:58:07;;;;;;;4.13;1.42;;;;;;;;;;5092197;28;20480;-68
2021/06/03 15:00:44;;;;;;;2.45;1.50;;;;;;;;;;5091073;28;20032;-69
2021/06/03 15:03:10;;;;;;;2.03;1.40;;;;;;;;;;5092543;28;20020;-69
2021/06/03 15:05:37;;;;;;;3.78;1.60;;;;;;;;;;5092013;28;20032;-69
2021/06/03 15:08:04;;;;;;;3.97;1.42;;;;;;;;;;5091128;28;20024;-69
2021/06/03 15:10:30;;;;;;;3.33;1.58;;;;;;;;;;5089218;28;20020;-69
2021/06/03 15:13:01;;;;;;;5.22;1.70;;;;;;;;;;5091299;28;20020;-69
2021/06/03 15:15:28;;;;;;;2.40;1.48;;;;;;;;;;5092331;28;20039;-69
2021/06/03 15:17:54;;;;;;;6.95;1.80;;;;;;;;;;5091608;28;20073;-68
2021/06/03 15:20:22;;;;;;;3.55;1.60;;;;;;;;;;5092383;28;20028;-68
2021/06/03 15:22:49;;;;;;;3.65;1.75;;;;;;;;;;5092335;28;20480;-68
2021/06/03 15:25:17;;;;;;;3.55;1.48;;;;;;;;;;5090578;28;20032;-69
2021/06/03 15:27:43;;;;;;;4.15;1.77;;;;;;;;;;5090471;28;20046;-69
2021/06/03 15:30:11;;;;;;;4.70;1.23;;;;;;;;;;5090742;28;20047;-69
2021/06/03 15:32:39;;;;;;;3.17;1.98;;;;;;;;;;5091770;28;20069;-69
2021/06/03 15:35:07;;;;;;;5.53;1.63;;;;;;;;;;5091983;28;20484;-69
2021/06/03 15:37:33;;;;;;;2.40;1.50;;;;;;;;;;5092118;28;20027;-69
2021/06/03 15:39:59;;;;;;;3.17;1.33;;;;;;;;;;5091604;28;20020;-69
2021/06/03 15:42:25;;;;;;;2.08;1.00;;;;;;;;;;5092419;28;20048;-69
2021/06/03 15:44:51;;;;;;;3.70;1.73;;;;;;;;;;5092723;28;20115;-69
2021/06/03 15:47:17;;;;;;;3.13;1.60;;;;;;;;;;5093614;28;20035;-69
2021/06/03 15:49:44;;;;;;;3.17;1.17;;;;;;;;;;5093370;28;20089;-69
2021/06/03 15:52:10;;;;;;;9.98;1.77;;;;;;;;;;5094962;28;20031;-70
2021/06/03 15:54:39;;;;;;;4.55;1.40;;;;;;;;;;5092670;28;20119;-70
2021/06/03 15:57:06;;;;;;;4.40;1.70;;;;;;;;;;5095539;28;20032;-70
2021/06/03 15:59:32;;;;;;;3.30;1.77;;;;;;;;;;5095817;28;20052;-70
2021/06/03 16:01:58;;;;;;;4.43;1.40;;;;;;;;;;5093507;28;20357;-68
2021/06/03 16:04:25;;;;;;;7.85;2.38;;;;;;;;;;5095631;28;20020;-67
2021/06/03 16:06:51;;;;;;;5.13;1.77;;;;;;;;;;5095184;28;20024;-69
2021/06/03 16:09:17;;;;;;;3.78;1.80;;;;;;;;;;5094267;28;20032;-69
2021/06/03 16:11:43;;;;;;;3.47;1.70;;;;;;;;;;5095816;28;20484;-69
2021/06/03 16:14:10;;;;;;;2.08;1.40;;;;;;;;;;5093668;28;20032;-68
2021/06/03 16:16:36;;;;;;;2.70;1.55;;;;;;;;;;5094006;28;20027;-68
2021/06/03 16:19:02;;;;;;;4.05;1.50;;;;;;;;;;5093898;28;20048;-68
2021/06/03 16:21:28;;;;;;;3.13;1.55;;;;;;;;;;5095042;28;20024;-69
2021/06/03 16:23:54;;;;;;;3.70;1.75;;;;;;;;;;5095234;28;20656;-69
2021/06/03 16:26:21;;;;;;;2.50;1.45;;;;;;;;;;5093806;28;20077;-69